sensor_id;sensor_type;location;lat;lon;timestamp;P1;durP1;ratioP1;P2;durP2;ratioP2
58152;SDS011;43967;51.634;5.566;2023-08-20T00:00:30;8.45;;;3.70;;
58152;SDS011;43967;51.634;5.566;2023-08-20T00:05:52;7.28;;;3.50;;
58152;SDS011;43967;51.634;5.566;2023-08-20T00:11:13;9.37;;;3.33;;
58152;SDS011;43967;51.634;5.566;2023-08-20T00:16:35;8.23;;;3.72;;
58152;SDS011;43967;51.634;5.566;2023-08-20T00:21:56;8.52;;;3.33;;
58152;SDS011;43967;51.634;5.566;2023-08-20T00:27:18;8.30;;;3.50;;
58152;SDS011;43967;51.634;5.566;2023-08-20T00:32:39;8.27;;;3.22;;
58152;SDS011;43967;51.634;5.566;2023-08-20T00:38:00;10.13;;;3.60;;
58152;SDS011;43967;51.634;5.566;2023-08-20T00:43:22;8.33;;;3.60;;
58152;SDS011;43967;51.634;5.566;2023-08-20T00:48:43;7.80;;;3.00;;
58152;SDS011;43967;51.634;5.566;2023-08-20T00:54:04;7.80;;;3.58;;
58152;SDS011;43967;51.634;5.566;2023-08-20T00:59:26;8.13;;;3.30;;
58152;SDS011;43967;51.634;5.566;2023-08-20T01:04:47;9.27;;;3.60;;
58152;SDS011;43967;51.634;5.566;2023-08-20T01:10:22;8.05;;;3.88;;
58152;SDS011;43967;51.634;5.566;2023-08-20T01:15:46;8.57;;;3.80;;
58152;SDS011;43967;51.634;5.566;2023-08-20T01:21:23;8.13;;;3.93;;
58152;SDS011;43967;51.634;5.566;2023-08-20T01:32:45;8.30;;;3.20;;
58152;SDS011;43967;51.634;5.566;2023-08-20T01:38:08;8.33;;;3.70;;
58152;SDS011;43967;51.634;5.566;2023-08-20T01:43:29;7.47;;;3.47;;
58152;SDS011;43967;51.634;5.566;2023-08-20T01:48:50;8.15;;;3.92;;
58152;SDS011;43967;51.634;5.566;2023-08-20T01:54:11;8.65;;;3.90;;
58152;SDS011;43967;51.634;5.566;2023-08-20T01:59:33;8.27;;;3.70;;
58152;SDS011;43967;51.634;5.566;2023-08-20T02:04:54;7.45;;;3.65;;
58152;SDS011;43967;51.634;5.566;2023-08-20T02:10:15;7.95;;;3.78;;
58152;SDS011;43967;51.634;5.566;2023-08-20T02:15:37;7.50;;;3.50;;
58152;SDS011;43967;51.634;5.566;2023-08-20T02:20:58;7.20;;;3.20;;
58152;SDS011;43967;51.634;5.566;2023-08-20T02:26:19;7.50;;;3.92;;
58152;SDS011;43967;51.634;5.566;2023-08-20T02:31:41;7.97;;;3.67;;
58152;SDS011;43967;51.634;5.566;2023-08-20T02:37:02;8.07;;;3.60;;
58152;SDS011;43967;51.634;5.566;2023-08-20T02:42:23;7.47;;;3.72;;
58152;SDS011;43967;51.634;5.566;2023-08-20T02:47:44;7.63;;;3.33;;
58152;SDS011;43967;51.634;5.566;2023-08-20T02:53:06;6.93;;;3.03;;
58152;SDS011;43967;51.634;5.566;2023-08-20T02:58:27;7.75;;;3.30;;
58152;SDS011;43967;51.634;5.566;2023-08-20T03:03:48;8.73;;;3.60;;
58152;SDS011;43967;51.634;5.566;2023-08-20T03:09:10;6.90;;;3.30;;
58152;SDS011;43967;51.634;5.566;2023-08-20T03:14:31;7.35;;;3.05;;
58152;SDS011;43967;51.634;5.566;2023-08-20T03:19:56;7.50;;;3.53;;
58152;SDS011;43967;51.634;5.566;2023-08-20T03:25:19;7.47;;;3.40;;
58152;SDS011;43967;51.634;5.566;2023-08-20T03:30:40;7.73;;;3.50;;
58152;SDS011;43967;51.634;5.566;2023-08-20T03:36:01;7.10;;;3.75;;
58152;SDS011;43967;51.634;5.566;2023-08-20T03:41:23;7.28;;;3.40;;
58152;SDS011;43967;51.634;5.566;2023-08-20T03:46:44;7.47;;;3.47;;
58152;SDS011;43967;51.634;5.566;2023-08-20T03:52:05;8.57;;;3.50;;
58152;SDS011;43967;51.634;5.566;2023-08-20T03:57:27;7.03;;;3.38;;
58152;SDS011;43967;51.634;5.566;2023-08-20T04:02:48;7.60;;;2.83;;
58152;SDS011;43967;51.634;5.566;2023-08-20T04:08:09;6.75;;;3.00;;
58152;SDS011;43967;51.634;5.566;2023-08-20T04:13:31;7.55;;;3.28;;
58152;SDS011;43967;51.634;5.566;2023-08-20T04:18:52;6.97;;;3.53;;
58152;SDS011;43967;51.634;5.566;2023-08-20T04:24:13;7.40;;;3.30;;
58152;SDS011;43967;51.634;5.566;2023-08-20T04:29:35;6.72;;;3.22;;
58152;SDS011;43967;51.634;5.566;2023-08-20T04:34:56;7.35;;;3.60;;
58152;SDS011;43967;51.634;5.566;2023-08-20T04:40:17;6.87;;;3.30;;
58152;SDS011;43967;51.634;5.566;2023-08-20T04:45:39;7.18;;;3.20;;
58152;SDS011;43967;51.634;5.566;2023-08-20T04:51:00;7.03;;;3.30;;
58152;SDS011;43967;51.634;5.566;2023-08-20T04:56:22;6.73;;;3.10;;
58152;SDS011;43967;51.634;5.566;2023-08-20T05:01:43;6.28;;;2.83;;
58152;SDS011;43967;51.634;5.566;2023-08-20T05:07:04;7.57;;;2.85;;
58152;SDS011;43967;51.634;5.566;2023-08-20T05:12:26;8.30;;;3.37;;
58152;SDS011;43967;51.634;5.566;2023-08-20T05:17:47;7.07;;;3.23;;
58152;SDS011;43967;51.634;5.566;2023-08-20T05:23:08;6.70;;;2.85;;
58152;SDS011;43967;51.634;5.566;2023-08-20T05:28:29;7.22;;;3.35;;
58152;SDS011;43967;51.634;5.566;2023-08-20T05:33:51;5.90;;;2.40;;
58152;SDS011;43967;51.634;5.566;2023-08-20T05:39:12;6.97;;;3.28;;
58152;SDS011;43967;51.634;5.566;2023-08-20T05:44:33;7.03;;;2.80;;
58152;SDS011;43967;51.634;5.566;2023-08-20T05:49:55;6.27;;;2.50;;
58152;SDS011;43967;51.634;5.566;2023-08-20T05:55:16;6.47;;;2.60;;
58152;SDS011;43967;51.634;5.566;2023-08-20T06:00:37;6.15;;;2.78;;
58152;SDS011;43967;51.634;5.566;2023-08-20T06:05:58;7.13;;;3.10;;
58152;SDS011;43967;51.634;5.566;2023-08-20T06:11:20;6.17;;;3.00;;
58152;SDS011;43967;51.634;5.566;2023-08-20T06:16:41;6.35;;;3.10;;
58152;SDS011;43967;51.634;5.566;2023-08-20T06:22:03;6.82;;;3.05;;
58152;SDS011;43967;51.634;5.566;2023-08-20T06:27:24;6.63;;;2.70;;
58152;SDS011;43967;51.634;5.566;2023-08-20T06:32:45;6.82;;;3.25;;
58152;SDS011;43967;51.634;5.566;2023-08-20T06:38:07;7.43;;;2.78;;
58152;SDS011;43967;51.634;5.566;2023-08-20T06:43:28;6.23;;;2.60;;
58152;SDS011;43967;51.634;5.566;2023-08-20T06:48:49;7.43;;;2.47;;
58152;SDS011;43967;51.634;5.566;2023-08-20T06:54:11;6.03;;;2.58;;
58152;SDS011;43967;51.634;5.566;2023-08-20T06:59:32;5.80;;;2.40;;
58152;SDS011;43967;51.634;5.566;2023-08-20T07:04:53;6.50;;;2.83;;
58152;SDS011;43967;51.634;5.566;2023-08-20T07:10:14;6.30;;;2.55;;
58152;SDS011;43967;51.634;5.566;2023-08-20T07:15:36;6.15;;;2.45;;
58152;SDS011;43967;51.634;5.566;2023-08-20T07:20:57;6.50;;;2.50;;
58152;SDS011;43967;51.634;5.566;2023-08-20T07:26:18;6.50;;;2.78;;
58152;SDS011;43967;51.634;5.566;2023-08-20T07:31:39;6.20;;;2.25;;
58152;SDS011;43967;51.634;5.566;2023-08-20T07:37:01;6.43;;;2.80;;
58152;SDS011;43967;51.634;5.566;2023-08-20T07:42:22;6.55;;;2.35;;
58152;SDS011;43967;51.634;5.566;2023-08-20T07:47:43;6.25;;;2.55;;
58152;SDS011;43967;51.634;5.566;2023-08-20T07:53:04;6.50;;;2.83;;
58152;SDS011;43967;51.634;5.566;2023-08-20T07:58:26;6.53;;;2.30;;
58152;SDS011;43967;51.634;5.566;2023-08-20T08:03:48;6.28;;;2.35;;
58152;SDS011;43967;51.634;5.566;2023-08-20T08:09:26;5.97;;;2.45;;
58152;SDS011;43967;51.634;5.566;2023-08-20T08:14:49;6.23;;;2.47;;
58152;SDS011;43967;51.634;5.566;2023-08-20T08:20:10;6.28;;;2.50;;
58152;SDS011;43967;51.634;5.566;2023-08-20T08:25:31;6.43;;;2.33;;
58152;SDS011;43967;51.634;5.566;2023-08-20T08:30:53;6.30;;;2.30;;
58152;SDS011;43967;51.634;5.566;2023-08-20T08:36:14;6.50;;;2.67;;
58152;SDS011;43967;51.634;5.566;2023-08-20T08:41:36;6.82;;;2.50;;
58152;SDS011;43967;51.634;5.566;2023-08-20T08:46:59;7.17;;;2.20;;
58152;SDS011;43967;51.634;5.566;2023-08-20T08:52:27;7.03;;;2.50;;
58152;SDS011;43967;51.634;5.566;2023-08-20T08:57:49;5.40;;;2.08;;
58152;SDS011;43967;51.634;5.566;2023-08-20T09:03:10;6.00;;;2.30;;
58152;SDS011;43967;51.634;5.566;2023-08-20T09:08:31;5.97;;;2.37;;
58152;SDS011;43967;51.634;5.566;2023-08-20T09:13:53;6.47;;;2.33;;
58152;SDS011;43967;51.634;5.566;2023-08-20T09:19:14;6.20;;;2.53;;
58152;SDS011;43967;51.634;5.566;2023-08-20T09:24:40;6.27;;;2.23;;
58152;SDS011;43967;51.634;5.566;2023-08-20T09:30:08;5.70;;;1.92;;
58152;SDS011;43967;51.634;5.566;2023-08-20T09:35:29;5.93;;;2.22;;
58152;SDS011;43967;51.634;5.566;2023-08-20T09:40:51;6.27;;;2.40;;
58152;SDS011;43967;51.634;5.566;2023-08-20T09:46:13;5.80;;;2.23;;
58152;SDS011;43967;51.634;5.566;2023-08-20T09:51:40;5.95;;;2.08;;
58152;SDS011;43967;51.634;5.566;2023-08-20T09:57:03;5.85;;;2.10;;
58152;SDS011;43967;51.634;5.566;2023-08-20T10:02:31;6.10;;;1.97;;
58152;SDS011;43967;51.634;5.566;2023-08-20T10:07:54;6.07;;;2.13;;
58152;SDS011;43967;51.634;5.566;2023-08-20T10:13:16;5.53;;;1.73;;
58152;SDS011;43967;51.634;5.566;2023-08-20T10:18:38;4.90;;;1.87;;
58152;SDS011;43967;51.634;5.566;2023-08-20T10:24:04;6.13;;;2.08;;
58152;SDS011;43967;51.634;5.566;2023-08-20T10:29:40;5.68;;;1.70;;
58152;SDS011;43967;51.634;5.566;2023-08-20T10:35:01;6.23;;;2.10;;
58152;SDS011;43967;51.634;5.566;2023-08-20T10:41:05;5.83;;;1.90;;
58152;SDS011;43967;51.634;5.566;2023-08-20T10:46:16;5.40;;;2.00;;
58152;SDS011;43967;51.634;5.566;2023-08-20T10:51:39;5.45;;;2.08;;
58152;SDS011;43967;51.634;5.566;2023-08-20T10:57:00;6.17;;;1.80;;
58152;SDS011;43967;51.634;5.566;2023-08-20T11:02:21;5.68;;;1.90;;
58152;SDS011;43967;51.634;5.566;2023-08-20T11:07:47;5.40;;;1.90;;
58152;SDS011;43967;51.634;5.566;2023-08-20T11:13:09;5.57;;;2.00;;
58152;SDS011;43967;51.634;5.566;2023-08-20T11:18:31;7.00;;;2.00;;
58152;SDS011;43967;51.634;5.566;2023-08-20T11:23:53;6.38;;;2.33;;
58152;SDS011;43967;51.634;5.566;2023-08-20T11:29:15;5.50;;;2.07;;
58152;SDS011;43967;51.634;5.566;2023-08-20T11:34:37;5.83;;;2.20;;
58152;SDS011;43967;51.634;5.566;2023-08-20T11:39:58;6.40;;;2.33;;
58152;SDS011;43967;51.634;5.566;2023-08-20T11:45:20;6.28;;;2.33;;
58152;SDS011;43967;51.634;5.566;2023-08-20T11:50:41;5.30;;;1.87;;
58152;SDS011;43967;51.634;5.566;2023-08-20T11:56:03;5.47;;;1.90;;
58152;SDS011;43967;51.634;5.566;2023-08-20T12:01:24;6.05;;;2.10;;
58152;SDS011;43967;51.634;5.566;2023-08-20T12:06:52;5.60;;;2.07;;
58152;SDS011;43967;51.634;5.566;2023-08-20T12:12:35;5.15;;;1.60;;
58152;SDS011;43967;51.634;5.566;2023-08-20T12:18:00;5.28;;;2.00;;
58152;SDS011;43967;51.634;5.566;2023-08-20T12:23:25;5.93;;;2.30;;
58152;SDS011;43967;51.634;5.566;2023-08-20T12:28:47;5.77;;;2.00;;
58152;SDS011;43967;51.634;5.566;2023-08-20T12:34:08;5.78;;;2.20;;
58152;SDS011;43967;51.634;5.566;2023-08-20T12:39:29;5.50;;;1.85;;
58152;SDS011;43967;51.634;5.566;2023-08-20T12:44:51;5.70;;;1.60;;
58152;SDS011;43967;51.634;5.566;2023-08-20T12:50:12;5.05;;;2.00;;
58152;SDS011;43967;51.634;5.566;2023-08-20T12:55:33;5.10;;;1.70;;
58152;SDS011;43967;51.634;5.566;2023-08-20T13:00:54;6.27;;;2.20;;
58152;SDS011;43967;51.634;5.566;2023-08-20T13:06:16;6.28;;;1.90;;
58152;SDS011;43967;51.634;5.566;2023-08-20T13:11:37;5.47;;;2.05;;
58152;SDS011;43967;51.634;5.566;2023-08-20T13:17:00;5.40;;;1.93;;
58152;SDS011;43967;51.634;5.566;2023-08-20T13:22:21;5.27;;;2.00;;
58152;SDS011;43967;51.634;5.566;2023-08-20T13:27:43;6.35;;;2.28;;
58152;SDS011;43967;51.634;5.566;2023-08-20T13:33:04;5.38;;;1.60;;
58152;SDS011;43967;51.634;5.566;2023-08-20T13:38:26;4.97;;;1.70;;
58152;SDS011;43967;51.634;5.566;2023-08-20T13:43:47;5.13;;;2.17;;
58152;SDS011;43967;51.634;5.566;2023-08-20T13:49:08;5.80;;;1.90;;
58152;SDS011;43967;51.634;5.566;2023-08-20T13:54:29;5.67;;;1.77;;
58152;SDS011;43967;51.634;5.566;2023-08-20T13:59:51;5.13;;;1.88;;
58152;SDS011;43967;51.634;5.566;2023-08-20T14:05:12;5.55;;;2.08;;
58152;SDS011;43967;51.634;5.566;2023-08-20T14:10:33;5.20;;;1.70;;
58152;SDS011;43967;51.634;5.566;2023-08-20T14:15:54;5.30;;;1.70;;
58152;SDS011;43967;51.634;5.566;2023-08-20T14:21:16;5.45;;;1.70;;
58152;SDS011;43967;51.634;5.566;2023-08-20T14:26:37;5.63;;;2.10;;
58152;SDS011;43967;51.634;5.566;2023-08-20T14:31:58;4.97;;;1.70;;
58152;SDS011;43967;51.634;5.566;2023-08-20T14:37:19;5.70;;;1.95;;
58152;SDS011;43967;51.634;5.566;2023-08-20T14:42:41;5.93;;;1.90;;
58152;SDS011;43967;51.634;5.566;2023-08-20T14:48:02;5.20;;;1.80;;
58152;SDS011;43967;51.634;5.566;2023-08-20T14:53:23;4.88;;;1.70;;
58152;SDS011;43967;51.634;5.566;2023-08-20T14:58:45;6.03;;;1.67;;
58152;SDS011;43967;51.634;5.566;2023-08-20T15:04:06;5.53;;;1.90;;
58152;SDS011;43967;51.634;5.566;2023-08-20T15:09:27;5.67;;;1.30;;
58152;SDS011;43967;51.634;5.566;2023-08-20T15:14:49;5.32;;;1.52;;
58152;SDS011;43967;51.634;5.566;2023-08-20T15:20:10;5.20;;;1.70;;
58152;SDS011;43967;51.634;5.566;2023-08-20T15:25:31;5.93;;;1.63;;
58152;SDS011;43967;51.634;5.566;2023-08-20T15:30:53;5.93;;;2.17;;
58152;SDS011;43967;51.634;5.566;2023-08-20T15:36:14;4.85;;;1.63;;
58152;SDS011;43967;51.634;5.566;2023-08-20T15:41:35;5.40;;;1.83;;
58152;SDS011;43967;51.634;5.566;2023-08-20T15:46:57;4.55;;;1.25;;
58152;SDS011;43967;51.634;5.566;2023-08-20T15:52:18;5.10;;;1.60;;
58152;SDS011;43967;51.634;5.566;2023-08-20T15:57:39;5.23;;;1.80;;
58152;SDS011;43967;51.634;5.566;2023-08-20T16:03:01;4.73;;;1.97;;
58152;SDS011;43967;51.634;5.566;2023-08-20T16:08:22;5.80;;;1.65;;
58152;SDS011;43967;51.634;5.566;2023-08-20T16:13:43;5.43;;;1.60;;
58152;SDS011;43967;51.634;5.566;2023-08-20T16:19:05;5.20;;;1.87;;
58152;SDS011;43967;51.634;5.566;2023-08-20T16:24:26;5.45;;;1.70;;
58152;SDS011;43967;51.634;5.566;2023-08-20T16:29:47;5.18;;;1.52;;
58152;SDS011;43967;51.634;5.566;2023-08-20T16:35:09;4.63;;;1.43;;
58152;SDS011;43967;51.634;5.566;2023-08-20T16:40:30;5.07;;;1.58;;
58152;SDS011;43967;51.634;5.566;2023-08-20T16:45:55;5.07;;;1.58;;
58152;SDS011;43967;51.634;5.566;2023-08-20T16:51:17;5.10;;;1.77;;
58152;SDS011;43967;51.634;5.566;2023-08-20T16:56:38;5.70;;;1.80;;
58152;SDS011;43967;51.634;5.566;2023-08-20T17:02:00;5.55;;;2.10;;
58152;SDS011;43967;51.634;5.566;2023-08-20T17:07:21;5.50;;;1.95;;
58152;SDS011;43967;51.634;5.566;2023-08-20T17:12:42;5.83;;;1.60;;
58152;SDS011;43967;51.634;5.566;2023-08-20T17:18:04;5.18;;;1.70;;
58152;SDS011;43967;51.634;5.566;2023-08-20T17:23:25;5.35;;;1.67;;
58152;SDS011;43967;51.634;5.566;2023-08-20T17:28:47;5.57;;;1.63;;
58152;SDS011;43967;51.634;5.566;2023-08-20T17:34:08;5.57;;;1.90;;
58152;SDS011;43967;51.634;5.566;2023-08-20T17:39:29;5.50;;;2.10;;
58152;SDS011;43967;51.634;5.566;2023-08-20T17:44:50;6.20;;;2.27;;
58152;SDS011;43967;51.634;5.566;2023-08-20T17:50:12;5.43;;;2.00;;
58152;SDS011;43967;51.634;5.566;2023-08-20T17:55:33;5.43;;;1.75;;
58152;SDS011;43967;51.634;5.566;2023-08-20T18:00:54;5.20;;;2.03;;
58152;SDS011;43967;51.634;5.566;2023-08-20T18:06:16;5.53;;;1.90;;
58152;SDS011;43967;51.634;5.566;2023-08-20T18:11:38;10.40;;;2.40;;
58152;SDS011;43967;51.634;5.566;2023-08-20T18:16:59;8.20;;;2.17;;
58152;SDS011;43967;51.634;5.566;2023-08-20T18:22:20;8.27;;;2.23;;
58152;SDS011;43967;51.634;5.566;2023-08-20T18:27:42;9.10;;;2.40;;
58152;SDS011;43967;51.634;5.566;2023-08-20T18:33:03;8.57;;;2.10;;
58152;SDS011;43967;51.634;5.566;2023-08-20T18:43:52;10.00;;;1.77;;
58152;SDS011;43967;51.634;5.566;2023-08-20T18:49:14;8.85;;;2.58;;
58152;SDS011;43967;51.634;5.566;2023-08-20T18:54:35;9.10;;;2.30;;
58152;SDS011;43967;51.634;5.566;2023-08-20T18:59:56;9.20;;;2.20;;
58152;SDS011;43967;51.634;5.566;2023-08-20T19:05:17;9.07;;;3.03;;
58152;SDS011;43967;51.634;5.566;2023-08-20T19:10:40;15.02;;;6.25;;
58152;SDS011;43967;51.634;5.566;2023-08-20T19:16:01;11.97;;;4.67;;
58152;SDS011;43967;51.634;5.566;2023-08-20T19:21:22;12.30;;;5.10;;
58152;SDS011;43967;51.634;5.566;2023-08-20T19:26:44;13.02;;;4.65;;
58152;SDS011;43967;51.634;5.566;2023-08-20T19:32:05;10.27;;;3.73;;
58152;SDS011;43967;51.634;5.566;2023-08-20T19:37:26;12.10;;;4.00;;
58152;SDS011;43967;51.634;5.566;2023-08-20T19:42:48;12.02;;;5.05;;
58152;SDS011;43967;51.634;5.566;2023-08-20T19:48:09;13.07;;;6.32;;
58152;SDS011;43967;51.634;5.566;2023-08-20T19:53:32;12.33;;;3.90;;
58152;SDS011;43967;51.634;5.566;2023-08-20T19:58:53;11.50;;;4.20;;
58152;SDS011;43967;51.634;5.566;2023-08-20T20:04:15;15.15;;;6.40;;
58152;SDS011;43967;51.634;5.566;2023-08-20T20:09:36;12.03;;;4.80;;
58152;SDS011;43967;51.634;5.566;2023-08-20T20:14:58;15.80;;;5.90;;
58152;SDS011;43967;51.634;5.566;2023-08-20T20:20:20;10.43;;;4.25;;
58152;SDS011;43967;51.634;5.566;2023-08-20T20:25:42;11.40;;;4.27;;
58152;SDS011;43967;51.634;5.566;2023-08-20T20:31:04;11.07;;;4.50;;
58152;SDS011;43967;51.634;5.566;2023-08-20T20:36:25;11.35;;;3.80;;
58152;SDS011;43967;51.634;5.566;2023-08-20T20:41:47;10.68;;;3.83;;
58152;SDS011;43967;51.634;5.566;2023-08-20T20:47:08;11.53;;;4.30;;
58152;SDS011;43967;51.634;5.566;2023-08-20T20:52:29;9.48;;;3.67;;
58152;SDS011;43967;51.634;5.566;2023-08-20T20:57:50;11.93;;;3.60;;
58152;SDS011;43967;51.634;5.566;2023-08-20T21:03:12;10.03;;;3.47;;
58152;SDS011;43967;51.634;5.566;2023-08-20T21:08:33;10.00;;;3.33;;
58152;SDS011;43967;51.634;5.566;2023-08-20T21:13:54;7.70;;;3.22;;
58152;SDS011;43967;51.634;5.566;2023-08-20T21:19:16;11.80;;;3.30;;
58152;SDS011;43967;51.634;5.566;2023-08-20T21:24:37;9.77;;;3.70;;
58152;SDS011;43967;51.634;5.566;2023-08-20T21:29:59;10.23;;;3.17;;
58152;SDS011;43967;51.634;5.566;2023-08-20T21:35:20;8.68;;;3.38;;
58152;SDS011;43967;51.634;5.566;2023-08-20T21:40:41;8.77;;;3.07;;
58152;SDS011;43967;51.634;5.566;2023-08-20T21:46:04;8.50;;;3.58;;
58152;SDS011;43967;51.634;5.566;2023-08-20T21:51:25;9.77;;;3.25;;
58152;SDS011;43967;51.634;5.566;2023-08-20T21:56:47;8.67;;;3.20;;
58152;SDS011;43967;51.634;5.566;2023-08-20T22:02:09;9.75;;;2.88;;
58152;SDS011;43967;51.634;5.566;2023-08-20T22:07:31;8.65;;;2.78;;
58152;SDS011;43967;51.634;5.566;2023-08-20T22:12:53;7.93;;;2.70;;
58152;SDS011;43967;51.634;5.566;2023-08-20T22:18:15;9.00;;;3.17;;
58152;SDS011;43967;51.634;5.566;2023-08-20T22:23:36;8.13;;;3.00;;
58152;SDS011;43967;51.634;5.566;2023-08-20T22:28:57;7.07;;;2.75;;
58152;SDS011;43967;51.634;5.566;2023-08-20T22:34:18;7.60;;;2.53;;
58152;SDS011;43967;51.634;5.566;2023-08-20T22:39:40;7.75;;;2.63;;
58152;SDS011;43967;51.634;5.566;2023-08-20T22:45:01;6.60;;;2.40;;
58152;SDS011;43967;51.634;5.566;2023-08-20T22:50:22;8.83;;;2.60;;
58152;SDS011;43967;51.634;5.566;2023-08-20T22:55:50;6.97;;;2.17;;
58152;SDS011;43967;51.634;5.566;2023-08-20T23:01:12;7.03;;;2.55;;
58152;SDS011;43967;51.634;5.566;2023-08-20T23:06:33;7.20;;;2.60;;
58152;SDS011;43967;51.634;5.566;2023-08-20T23:11:54;7.10;;;2.70;;
58152;SDS011;43967;51.634;5.566;2023-08-20T23:17:16;7.38;;;2.80;;
58152;SDS011;43967;51.634;5.566;2023-08-20T23:22:37;8.27;;;3.17;;
58152;SDS011;43967;51.634;5.566;2023-08-20T23:27:58;6.37;;;2.27;;
58152;SDS011;43967;51.634;5.566;2023-08-20T23:33:19;8.77;;;2.90;;
58152;SDS011;43967;51.634;5.566;2023-08-20T23:38:41;7.13;;;2.38;;
58152;SDS011;43967;51.634;5.566;2023-08-20T23:44:02;7.17;;;2.80;;
58152;SDS011;43967;51.634;5.566;2023-08-20T23:49:23;8.07;;;2.20;;
58152;SDS011;43967;51.634;5.566;2023-08-20T23:54:45;7.10;;;2.58;;
